createdAt,value
2019-05-02T00:00:03.241Z,0.00
2019-05-02T00:01:03.227Z,0.00
2019-05-02T00:02:03.217Z,0.00
2019-05-02T00:03:04.458Z,0.00
2019-05-02T00:04:03.862Z,0.00
2019-05-02T00:05:03.180Z,0.00
2019-05-02T00:06:07.588Z,0.00
2019-05-02T00:07:03.161Z,0.00
2019-05-02T00:08:03.152Z,0.00
2019-05-02T00:09:03.871Z,0.00
2019-05-02T00:10:03.129Z,0.00
2019-05-02T00:11:03.119Z,0.00
2019-05-02T00:12:03.111Z,0.00
2019-05-02T00:13:03.099Z,0.00
2019-05-02T00:14:03.108Z,0.00
2019-05-02T00:15:03.594Z,0.00
2019-05-02T00:16:03.070Z,0.00
2019-05-02T00:17:03.052Z,0.00
2019-05-02T00:18:05.863Z,0.00
2019-05-02T00:19:03.053Z,0.00
2019-05-02T00:20:03.021Z,0.00
2019-05-02T00:21:03.248Z,0.00
2019-05-02T00:22:02.999Z,0.00
2019-05-02T00:23:02.989Z,0.00
2019-05-02T00:25:01.961Z,0.00
2019-05-02T00:26:02.954Z,0.00
2019-05-02T00:27:03.240Z,0.00
2019-05-02T00:28:02.937Z,0.00
2019-05-02T00:29:02.919Z,0.00
2019-05-02T00:30:02.932Z,0.00
2019-05-02T00:31:07.532Z,0.00
2019-05-02T00:32:02.895Z,0.00
2019-05-02T00:33:03.357Z,0.00
2019-05-02T00:34:02.872Z,0.00
2019-05-02T00:35:02.864Z,0.00
2019-05-02T00:36:02.856Z,0.00
2019-05-02T00:37:02.836Z,0.00
2019-05-02T00:38:03.834Z,0.00
2019-05-02T00:39:02.816Z,0.00
2019-05-02T00:40:02.822Z,0.00
2019-05-02T00:41:03.679Z,0.00
2019-05-02T00:42:12.543Z,0.00
2019-05-02T00:43:02.769Z,0.00
2019-05-02T00:44:06.015Z,0.00
2019-05-02T00:45:02.772Z,0.00
2019-05-02T00:46:02.755Z,0.00
2019-05-02T00:47:06.045Z,0.00
2019-05-02T00:48:02.719Z,0.00
2019-05-02T00:49:02.711Z,0.00
2019-05-02T00:50:06.248Z,0.00
2019-05-02T00:51:02.683Z,0.00
2019-05-02T00:52:03.129Z,0.00
2019-05-02T00:53:02.663Z,0.00
2019-05-02T00:54:02.652Z,0.00
2019-05-02T00:55:02.661Z,0.00
2019-05-02T00:56:05.145Z,0.00
2019-05-02T00:57:02.627Z,0.00
2019-05-02T00:58:02.607Z,0.00
2019-05-02T00:59:07.622Z,0.00
2019-05-02T01:00:02.604Z,0.00
2019-05-02T01:01:03.363Z,0.00
2019-05-02T01:02:05.469Z,0.00
2019-05-02T01:03:02.560Z,0.00
2019-05-02T01:04:02.541Z,0.00
2019-05-02T01:05:03.313Z,0.00
2019-05-02T01:06:02.519Z,0.00
2019-05-02T01:07:02.513Z,0.00
2019-05-02T01:08:03.003Z,0.00
2019-05-02T01:09:05.909Z,0.00
2019-05-02T01:10:05.353Z,0.00
2019-05-02T01:11:02.469Z,0.00
2019-05-02T01:12:03.226Z,0.00
2019-05-02T01:13:05.353Z,0.00
2019-05-02T01:14:02.441Z,0.00
2019-05-02T01:15:03.354Z,0.00
2019-05-02T01:16:02.421Z,0.00
2019-05-02T01:17:03.352Z,0.00
2019-05-02T01:18:06.120Z,0.00
2019-05-02T01:19:02.380Z,0.00
2019-05-02T01:20:02.393Z,0.00
2019-05-02T01:21:02.750Z,0.00
2019-05-02T01:22:02.359Z,0.00
2019-05-02T01:23:02.345Z,0.00
2019-05-02T01:24:02.971Z,0.00
2019-05-02T01:25:02.313Z,0.00
2019-05-02T01:26:02.327Z,0.00
2019-05-02T01:27:04.494Z,0.00
2019-05-02T01:28:02.285Z,0.00
2019-05-02T01:29:02.275Z,0.00
2019-05-02T01:30:06.071Z,0.00
2019-05-02T01:31:02.273Z,0.00
2019-05-02T01:32:02.241Z,0.00
2019-05-02T01:33:06.389Z,0.00
2019-05-02T01:34:02.239Z,0.00
2019-05-02T01:35:02.211Z,0.00
2019-05-02T01:36:06.513Z,0.00
2019-05-02T01:37:02.187Z,0.00
2019-05-02T01:39:03.036Z,0.00
2019-05-02T01:40:02.150Z,0.00
2019-05-02T01:41:02.167Z,0.00
2019-05-02T01:42:04.102Z,0.00
2019-05-02T01:43:02.123Z,0.00
2019-05-02T01:44:02.115Z,0.00
2019-05-02T01:45:02.098Z,0.00
2019-05-02T01:46:02.113Z,0.00
2019-05-02T01:47:02.097Z,0.00
2019-05-02T01:48:04.958Z,0.00
2019-05-02T01:49:02.053Z,0.00
2019-05-02T01:50:02.046Z,0.00
2019-05-02T01:51:04.685Z,0.00
2019-05-02T01:52:02.047Z,0.00
2019-05-02T01:53:02.018Z,0.00
2019-05-02T01:54:05.065Z,0.00
2019-05-02T01:55:01.991Z,0.00
2019-05-02T01:56:01.989Z,0.00
2019-05-02T01:57:04.004Z,0.00
2019-05-02T01:58:01.964Z,0.00
2019-05-02T01:59:01.970Z,0.00
2019-05-02T02:00:04.230Z,0.00
2019-05-02T02:01:01.929Z,0.00
2019-05-02T02:02:01.931Z,0.00
2019-05-02T02:03:04.127Z,0.00
2019-05-02T02:04:01.895Z,0.00
2019-05-02T02:05:01.901Z,0.00
2019-05-02T02:06:02.844Z,0.00
2019-05-02T02:07:01.883Z,0.00
2019-05-02T02:08:01.853Z,0.00
2019-05-02T02:09:03.360Z,0.00
2019-05-02T02:10:01.838Z,0.00
2019-05-02T02:11:01.821Z,0.00
2019-05-02T02:12:04.958Z,0.00
2019-05-02T02:13:04.706Z,0.00
2019-05-02T02:14:01.789Z,0.00
2019-05-02T02:15:01.783Z,0.00
2019-05-02T02:16:04.337Z,0.00
2019-05-02T02:17:01.769Z,0.00
2019-05-02T02:18:01.751Z,0.00
2019-05-02T02:19:03.931Z,0.00
2019-05-02T02:20:02.356Z,0.00
2019-05-02T02:21:01.709Z,0.00
2019-05-02T02:22:02.819Z,0.00
2019-05-02T02:23:01.697Z,0.00
2019-05-02T02:24:01.689Z,0.00
2019-05-02T02:25:02.911Z,0.00
2019-05-02T02:26:06.850Z,0.00
2019-05-02T02:27:01.640Z,0.00
2019-05-02T02:28:01.657Z,0.00
2019-05-02T02:29:03.221Z,0.00
2019-05-02T02:30:01.619Z,0.00
2019-05-02T02:31:04.618Z,0.00
2019-05-02T02:32:01.595Z,0.00
2019-05-02T02:34:00.568Z,0.00
2019-05-02T02:35:03.591Z,0.00
2019-05-02T02:36:01.545Z,0.00
2019-05-02T02:37:05.629Z,0.00
2019-05-02T02:38:04.364Z,0.00
2019-05-02T02:39:07.066Z,0.00
2019-05-02T02:40:04.340Z,0.00
2019-05-02T02:41:06.384Z,0.00
2019-05-02T02:42:01.486Z,0.00
2019-05-02T02:43:12.611Z,0.00
2019-05-02T02:44:02.915Z,0.00
2019-05-02T02:45:01.450Z,0.00
2019-05-02T02:46:01.448Z,0.00
2019-05-02T02:47:01.433Z,0.00
2019-05-02T02:48:02.537Z,0.00
2019-05-02T02:49:01.401Z,0.00
2019-05-02T02:50:02.679Z,0.00
2019-05-02T02:51:01.392Z,0.00
2019-05-02T02:52:04.747Z,0.00
2019-05-02T02:53:01.378Z,0.00
2019-05-02T02:54:03.925Z,0.00
2019-05-02T02:55:01.350Z,0.00
2019-05-02T02:56:03.540Z,0.00
2019-05-02T02:57:01.323Z,0.00
2019-05-02T02:58:04.755Z,0.00
2019-05-02T02:59:01.301Z,0.00
2019-05-02T03:00:07.819Z,0.00
2019-05-02T03:01:01.277Z,0.00
2019-05-02T03:02:09.110Z,0.00
2019-05-02T03:03:01.383Z,0.00
2019-05-02T03:04:02.048Z,0.00
2019-05-02T03:05:01.238Z,0.00
2019-05-02T03:06:05.396Z,0.00
2019-05-02T03:07:01.218Z,0.00
2019-05-02T03:08:05.351Z,0.00
2019-05-02T03:09:01.190Z,0.00
2019-05-02T03:10:06.160Z,0.00
2019-05-02T03:11:03.852Z,0.00
2019-05-02T03:12:02.100Z,0.00
2019-05-02T03:13:01.149Z,0.00
2019-05-02T03:14:07.205Z,0.00
2019-05-02T03:15:01.175Z,0.00
2019-05-02T03:16:07.244Z,0.00
2019-05-02T03:17:01.102Z,0.00
2019-05-02T03:18:02.140Z,0.00
2019-05-02T03:19:01.107Z,0.00
2019-05-02T03:20:04.051Z,0.00
2019-05-02T03:21:01.062Z,0.00
2019-05-02T03:22:03.841Z,0.00
2019-05-02T03:23:01.039Z,0.00
2019-05-02T03:24:05.428Z,4.00
2019-05-02T03:25:01.020Z,4.00
2019-05-02T03:26:01.006Z,4.00
2019-05-02T03:27:00.991Z,4.00
2019-05-02T03:28:00.990Z,4.00
2019-05-02T03:29:01.151Z,0.00
2019-05-02T03:30:00.971Z,4.00
2019-05-02T03:31:22.027Z,4.00
2019-05-02T03:32:14.939Z,4.00
2019-05-02T03:33:10.321Z,4.00
2019-05-02T03:34:01.486Z,4.00
2019-05-02T03:35:00.907Z,4.00
2019-05-02T03:36:00.896Z,8.00
2019-05-02T03:37:09.561Z,8.00
2019-05-02T03:38:00.878Z,8.00
2019-05-02T03:39:13.910Z,8.00
2019-05-02T03:40:00.924Z,8.00
2019-05-02T03:41:00.841Z,8.00
2019-05-02T03:42:02.989Z,12.00
2019-05-02T03:44:10.427Z,12.00
2019-05-02T03:45:04.747Z,16.00
2019-05-02T03:46:00.789Z,12.00
2019-05-02T03:47:02.346Z,16.00
2019-05-02T03:48:00.767Z,16.00
2019-05-02T03:49:07.224Z,16.00
2019-05-02T03:50:00.745Z,20.00
2019-05-02T03:51:04.890Z,20.00
2019-05-02T03:52:02.583Z,20.00
2019-05-02T03:53:00.711Z,24.00
2019-05-02T03:54:07.292Z,20.00
2019-05-02T03:56:10.462Z,24.00
2019-05-02T03:57:00.674Z,24.00
2019-05-02T03:58:13.099Z,28.00
2019-05-02T03:59:03.335Z,28.00
2019-05-02T04:00:00.659Z,28.00
2019-05-02T04:01:03.362Z,32.00
2019-05-02T04:02:01.350Z,32.00
2019-05-02T04:03:02.541Z,36.00
2019-05-02T04:04:00.600Z,36.00
2019-05-02T04:05:03.339Z,40.00
2019-05-02T04:06:00.568Z,40.00
2019-05-02T04:07:01.479Z,44.00
2019-05-02T04:08:00.551Z,52.00
2019-05-02T04:09:02.025Z,60.00
2019-05-02T04:10:00.543Z,72.00
2019-05-02T04:11:01.807Z,80.00
2019-05-02T04:12:00.502Z,84.00
2019-05-02T04:13:00.494Z,84.00
2019-05-02T04:14:00.485Z,88.00
2019-05-02T04:15:03.340Z,88.00
2019-05-02T04:16:00.464Z,96.00
2019-05-02T04:17:00.446Z,96.00
2019-05-02T04:18:00.439Z,96.00
2019-05-02T04:19:00.453Z,96.00
2019-05-02T04:20:00.420Z,96.00
2019-05-02T04:21:00.407Z,104.00
2019-05-02T04:22:07.889Z,108.00
2019-05-02T04:23:00.387Z,104.00
2019-05-02T04:24:10.338Z,112.00
2019-05-02T04:25:00.407Z,112.00
2019-05-02T04:26:00.429Z,116.00
2019-05-02T04:27:00.341Z,120.00
2019-05-02T04:28:05.969Z,128.00
2019-05-02T04:29:00.320Z,132.00
2019-05-02T04:30:09.783Z,128.00
2019-05-02T04:31:00.317Z,136.00
2019-05-02T04:32:04.500Z,132.00
2019-05-02T04:33:00.285Z,132.00
2019-05-02T04:34:00.273Z,140.00
2019-05-02T04:35:00.258Z,144.00
2019-05-02T04:36:00.260Z,148.00
2019-05-02T04:37:03.508Z,148.00
2019-05-02T04:38:02.736Z,148.00
2019-05-02T04:39:05.629Z,160.00
2019-05-02T04:40:03.449Z,172.00
2019-05-02T04:41:00.218Z,176.00
2019-05-02T04:42:05.494Z,176.00
2019-05-02T04:43:05.649Z,180.00
2019-05-02T04:44:01.546Z,184.00
2019-05-02T04:46:00.122Z,180.00
2019-05-02T04:47:11.136Z,184.00
2019-05-02T04:48:03.869Z,180.00
2019-05-02T04:49:00.105Z,184.00
2019-05-02T04:50:00.093Z,180.00
2019-05-02T04:51:10.266Z,168.00
2019-05-02T04:52:06.906Z,164.00
2019-05-02T04:53:00.096Z,192.00
2019-05-02T04:54:00.055Z,196.00
2019-05-02T04:55:08.319Z,200.00
2019-05-02T04:56:04.458Z,184.00
2019-05-02T04:57:02.293Z,184.00
2019-05-02T04:58:01.758Z,200.00
2019-05-02T04:59:01.855Z,200.00
2019-05-02T05:00:06.141Z,220.00
2019-05-02T05:01:01.906Z,248.00
2019-05-02T05:02:01.356Z,244.00
2019-05-02T05:02:59.948Z,264.00
2019-05-02T05:04:03.123Z,232.00
2019-05-02T05:04:59.937Z,236.00
2019-05-02T05:06:07.105Z,248.00
2019-05-02T05:07:01.052Z,236.00
2019-05-02T05:07:59.911Z,220.00
2019-05-02T05:09:03.961Z,232.00
2019-05-02T05:10:03.067Z,248.00
2019-05-02T05:10:59.866Z,260.00
2019-05-02T05:12:02.578Z,248.00
2019-05-02T05:12:59.842Z,280.00
2019-05-02T05:14:00.418Z,324.00
2019-05-02T05:15:00.499Z,328.00
2019-05-02T05:16:02.898Z,360.00
2019-05-02T05:16:59.818Z,372.00
2019-05-02T05:18:04.473Z,384.00
2019-05-02T05:19:00.082Z,396.00
2019-05-02T05:20:10.457Z,384.00
2019-05-02T05:20:59.753Z,404.00
2019-05-02T05:22:04.772Z,376.00
2019-05-02T05:22:59.752Z,384.00
2019-05-02T05:24:01.404Z,404.00
2019-05-02T05:24:59.713Z,404.00
2019-05-02T05:26:03.517Z,432.00
2019-05-02T05:27:00.191Z,388.00
2019-05-02T05:28:05.667Z,388.00
2019-05-02T05:28:59.675Z,392.00
2019-05-02T05:30:08.475Z,412.00
2019-05-02T05:30:59.646Z,404.00
2019-05-02T05:32:05.158Z,404.00
2019-05-02T05:32:59.646Z,424.00
2019-05-02T05:33:59.613Z,420.00
2019-05-02T05:35:03.467Z,436.00
2019-05-02T05:35:59.588Z,424.00
2019-05-02T05:37:03.494Z,384.00
2019-05-02T05:37:59.585Z,372.00
2019-05-02T05:39:58.548Z,392.00
2019-05-02T05:41:03.120Z,376.00
2019-05-02T05:41:59.524Z,356.00
2019-05-02T05:43:02.689Z,376.00
2019-05-02T05:43:59.503Z,360.00
2019-05-02T05:45:03.974Z,356.00
2019-05-02T05:46:09.245Z,396.00
2019-05-02T05:46:59.469Z,396.00
2019-05-02T05:48:02.329Z,396.00
2019-05-02T05:48:59.448Z,444.00
2019-05-02T05:50:01.210Z,444.00
2019-05-02T05:51:02.322Z,392.00
2019-05-02T05:52:02.270Z,484.00
2019-05-02T05:53:00.318Z,492.00
2019-05-02T05:54:02.946Z,484.00
2019-05-02T05:54:59.382Z,484.00
2019-05-02T05:56:02.492Z,584.00
2019-05-02T05:56:59.368Z,540.00
2019-05-02T05:58:03.151Z,524.00
2019-05-02T05:58:59.391Z,532.00
2019-05-02T06:00:03.997Z,560.00
2019-05-02T06:00:59.314Z,544.00
2019-05-02T06:02:05.486Z,524.00
2019-05-02T06:03:10.296Z,544.00
2019-05-02T06:03:59.294Z,540.00
2019-05-02T06:05:03.687Z,472.00
2019-05-02T06:05:59.263Z,548.00
2019-05-02T06:07:03.118Z,520.00
2019-05-02T06:07:59.272Z,568.00
2019-05-02T06:08:59.229Z,536.00
2019-05-02T06:10:02.338Z,484.00
2019-05-02T06:10:59.212Z,568.00
2019-05-02T06:11:59.225Z,564.00
2019-05-02T06:12:59.193Z,488.00
2019-05-02T06:13:59.174Z,460.00
2019-05-02T06:15:01.936Z,524.00
2019-05-02T06:16:02.850Z,460.00
2019-05-02T06:16:59.172Z,540.00
2019-05-02T06:18:00.074Z,552.00
2019-05-02T06:18:59.125Z,592.00
2019-05-02T06:19:59.107Z,596.00
2019-05-02T06:21:03.446Z,644.00
2019-05-02T06:21:59.113Z,652.00
2019-05-02T06:23:58.100Z,580.00
2019-05-02T06:24:59.064Z,544.00
2019-05-02T06:25:59.048Z,532.00
2019-05-02T06:26:59.036Z,632.00
2019-05-02T06:28:00.277Z,628.00
2019-05-02T06:28:59.029Z,560.00
2019-05-02T06:29:59.007Z,676.00
2019-05-02T06:31:02.233Z,592.00
2019-05-02T06:31:59.816Z,620.00
2019-05-02T06:32:58.967Z,660.00
2019-05-02T06:34:02.112Z,716.00
2019-05-02T06:34:58.949Z,692.00
2019-05-02T06:36:01.421Z,668.00
2019-05-02T06:37:01.819Z,540.00
2019-05-02T06:37:58.911Z,660.00
2019-05-02T06:39:57.918Z,656.00
2019-05-02T06:40:58.879Z,772.00
2019-05-02T06:41:58.911Z,868.00
2019-05-02T06:42:58.934Z,944.00
2019-05-02T06:43:58.869Z,828.00
2019-05-02T06:44:59.665Z,740.00
2019-05-02T06:45:58.829Z,760.00
2019-05-02T06:46:59.313Z,808.00
2019-05-02T06:48:01.157Z,708.00
2019-05-02T06:48:58.817Z,836.00
2019-05-02T06:50:01.104Z,832.00
2019-05-02T06:51:01.316Z,808.00
2019-05-02T06:51:58.759Z,764.00
2019-05-02T06:53:04.433Z,696.00
2019-05-02T06:53:58.772Z,648.00
2019-05-02T06:54:59.158Z,776.00
2019-05-02T06:55:58.739Z,748.00
2019-05-02T06:56:58.704Z,824.00
2019-05-02T06:58:02.978Z,660.00
2019-05-02T06:59:57.675Z,912.00
2019-05-02T07:00:59.178Z,752.00
2019-05-02T07:01:58.834Z,760.00
2019-05-02T07:02:58.638Z,752.00
2019-05-02T07:03:58.629Z,736.00
2019-05-02T07:04:58.659Z,736.00
2019-05-02T07:06:02.706Z,688.00
2019-05-02T07:06:59.731Z,744.00
2019-05-02T07:07:58.618Z,764.00
2019-05-02T07:08:59.701Z,776.00
2019-05-02T07:10:01.317Z,828.00
2019-05-02T07:11:01.551Z,728.00
2019-05-02T07:12:01.359Z,804.00
2019-05-02T07:13:10.138Z,824.00
2019-05-02T07:14:12.120Z,848.00
2019-05-02T07:15:01.513Z,728.00
2019-05-02T07:15:58.501Z,728.00
2019-05-02T07:16:58.482Z,832.00
2019-05-02T07:17:58.503Z,828.00
2019-05-02T07:18:58.463Z,860.00
2019-05-02T07:20:03.880Z,736.00
2019-05-02T07:20:58.446Z,764.00
2019-05-02T07:22:03.701Z,792.00
2019-05-02T07:22:58.429Z,744.00
2019-05-02T07:23:58.413Z,708.00
2019-05-02T07:25:01.797Z,732.00
2019-05-02T07:26:00.298Z,820.00
2019-05-02T07:26:58.383Z,792.00
2019-05-02T07:27:58.358Z,772.00
2019-05-02T07:28:58.360Z,780.00
2019-05-02T07:29:59.686Z,832.00
2019-05-02T07:30:58.339Z,948.00
2019-05-02T07:31:58.320Z,876.00
2019-05-02T07:33:01.142Z,868.00
2019-05-02T07:34:00.808Z,900.00
2019-05-02T07:34:58.855Z,996.00
2019-05-02T07:36:00.062Z,788.00
2019-05-02T07:36:58.291Z,828.00
2019-05-02T07:37:58.258Z,760.00
2019-05-02T07:39:05.020Z,700.00
2019-05-02T07:39:58.235Z,732.00
2019-05-02T07:40:58.215Z,904.00
2019-05-02T07:42:00.539Z,1000.00
2019-05-02T07:42:58.224Z,1108.00
2019-05-02T07:43:58.807Z,1172.00
2019-05-02T07:44:58.184Z,1040.00
2019-05-02T07:45:58.174Z,1244.00
2019-05-02T07:47:02.487Z,980.00
2019-05-02T07:48:01.225Z,872.00
2019-05-02T07:48:58.150Z,820.00
2019-05-02T07:49:58.122Z,856.00
2019-05-02T07:50:58.123Z,944.00
2019-05-02T07:51:58.970Z,900.00
2019-05-02T07:52:58.145Z,824.00
2019-05-02T07:53:58.087Z,876.00
2019-05-02T07:55:01.222Z,852.00
2019-05-02T07:55:58.064Z,904.00
2019-05-02T07:56:58.076Z,768.00
2019-05-02T07:58:02.042Z,984.00
2019-05-02T07:58:58.858Z,1148.00
2019-05-02T08:00:00.655Z,1036.00
2019-05-02T08:00:58.014Z,1068.00
2019-05-02T08:01:58.019Z,1120.00
2019-05-02T08:02:59.413Z,1076.00
2019-05-02T08:04:04.012Z,1004.00
2019-05-02T08:04:57.965Z,944.00
2019-05-02T08:05:58.531Z,1164.00
2019-05-02T08:06:57.952Z,1096.00
2019-05-02T08:07:57.963Z,992.00
2019-05-02T08:09:01.694Z,1124.00
2019-05-02T08:09:57.901Z,828.00
2019-05-02T08:11:01.843Z,904.00
2019-05-02T08:11:57.894Z,1116.00
2019-05-02T08:12:57.886Z,1164.00
2019-05-02T08:14:00.438Z,1224.00
2019-05-02T08:15:00.298Z,832.00
2019-05-02T08:15:57.973Z,720.00
2019-05-02T08:17:05.299Z,692.00
2019-05-02T08:17:57.825Z,764.00
2019-05-02T08:19:01.442Z,1116.00
2019-05-02T08:19:57.802Z,1128.00
2019-05-02T08:20:57.819Z,1188.00
2019-05-02T08:21:57.786Z,1360.00
2019-05-02T08:22:57.780Z,1280.00
2019-05-02T08:24:02.320Z,1352.00
2019-05-02T08:25:00.303Z,948.00
2019-05-02T08:25:57.747Z,796.00
2019-05-02T08:26:58.389Z,776.00
2019-05-02T08:27:57.720Z,828.00
2019-05-02T08:29:00.301Z,1052.00
2019-05-02T08:30:00.096Z,884.00
2019-05-02T08:30:57.686Z,876.00
2019-05-02T08:32:59.304Z,952.00
2019-05-02T08:33:57.652Z,960.00
2019-05-02T08:34:57.650Z,984.00
2019-05-02T08:35:57.626Z,1000.00
2019-05-02T08:36:58.922Z,812.00
2019-05-02T08:37:57.608Z,904.00
2019-05-02T08:38:57.596Z,1064.00
2019-05-02T08:39:57.599Z,1080.00
2019-05-02T08:40:57.589Z,932.00
2019-05-02T08:41:57.941Z,932.00
2019-05-02T08:42:57.551Z,1160.00
2019-05-02T08:43:57.543Z,1084.00
2019-05-02T08:45:00.983Z,1408.00
2019-05-02T08:45:57.546Z,1108.00
2019-05-02T08:46:57.522Z,1008.00
2019-05-02T08:48:00.177Z,1032.00
2019-05-02T08:48:57.487Z,1160.00
2019-05-02T08:49:57.503Z,1208.00
2019-05-02T08:50:57.461Z,1284.00
2019-05-02T08:51:57.483Z,996.00
2019-05-02T08:52:57.450Z,1096.00
2019-05-02T08:53:58.680Z,1232.00
2019-05-02T08:54:57.447Z,1372.00
2019-05-02T08:55:57.419Z,1276.00
2019-05-02T08:56:59.118Z,1244.00
2019-05-02T08:58:00.299Z,1212.00
2019-05-02T08:58:57.381Z,1180.00
2019-05-02T09:00:00.185Z,1076.00
2019-05-02T09:00:57.363Z,960.00
2019-05-02T09:02:00.792Z,872.00
2019-05-02T09:03:02.707Z,872.00
2019-05-02T09:03:57.326Z,1032.00
2019-05-02T09:04:58.746Z,1044.00
2019-05-02T09:06:05.491Z,1012.00
2019-05-02T09:06:58.774Z,920.00
2019-05-02T09:07:57.798Z,1260.00
2019-05-02T09:08:57.796Z,1288.00
2019-05-02T09:10:00.182Z,1252.00
2019-05-02T09:10:57.254Z,1128.00
2019-05-02T09:12:08.974Z,1076.00
2019-05-02T09:12:59.798Z,1092.00
2019-05-02T09:13:57.249Z,1048.00
2019-05-02T09:14:57.239Z,968.00
2019-05-02T09:15:57.196Z,1036.00
2019-05-02T09:17:00.276Z,1060.00
2019-05-02T09:17:57.180Z,1136.00
2019-05-02T09:18:57.159Z,1336.00
2019-05-02T09:20:02.364Z,1380.00
2019-05-02T09:20:57.159Z,1524.00
2019-05-02T09:21:57.143Z,1284.00
2019-05-02T09:22:57.119Z,1248.00
2019-05-02T09:23:57.110Z,1172.00
2019-05-02T09:24:57.095Z,1048.00
2019-05-02T09:25:57.120Z,980.00
2019-05-02T09:26:57.083Z,1068.00
2019-05-02T09:27:57.068Z,1288.00
2019-05-02T09:29:56.042Z,1400.00
2019-05-02T09:31:02.036Z,1140.00
2019-05-02T09:32:57.040Z,1268.00
2019-05-02T09:33:57.006Z,1380.00
2019-05-02T09:35:01.312Z,1324.00
2019-05-02T09:35:59.800Z,1240.00
2019-05-02T09:36:56.977Z,1164.00
2019-05-02T09:37:56.955Z,1124.00
2019-05-02T09:38:57.713Z,888.00
2019-05-02T09:39:56.936Z,1156.00
2019-05-02T09:40:57.336Z,1172.00
2019-05-02T09:41:56.904Z,1328.00
2019-05-02T09:43:01.632Z,1476.00
2019-05-02T09:43:56.895Z,1540.00
2019-05-02T09:44:57.116Z,1384.00
2019-05-02T09:45:56.878Z,1052.00
2019-05-02T09:46:57.215Z,1024.00
2019-05-02T09:48:05.174Z,1300.00
2019-05-02T09:49:01.412Z,1368.00
2019-05-02T09:49:56.829Z,1408.00
2019-05-02T09:51:04.590Z,1348.00
2019-05-02T09:51:59.702Z,1192.00
2019-05-02T09:52:56.828Z,1132.00
2019-05-02T09:53:57.060Z,1056.00
2019-05-02T09:54:56.776Z,1292.00
2019-05-02T09:55:58.065Z,1524.00
2019-05-02T09:56:56.749Z,1332.00
2019-05-02T09:57:57.291Z,1204.00
2019-05-02T09:59:04.766Z,960.00
2019-05-02T09:59:56.724Z,1128.00
2019-05-02T10:00:56.708Z,1004.00
2019-05-02T10:01:56.700Z,1336.00
2019-05-02T10:02:56.680Z,1280.00
2019-05-02T10:03:56.841Z,1096.00
2019-05-02T10:04:56.672Z,1032.00
2019-05-02T10:05:56.640Z,1160.00
2019-05-02T10:06:56.653Z,1216.00
2019-05-02T10:07:57.555Z,1336.00
2019-05-02T10:08:56.645Z,1432.00
2019-05-02T10:09:57.717Z,1248.00
2019-05-02T10:10:56.611Z,1144.00
2019-05-02T10:11:56.581Z,1156.00
2019-05-02T10:12:56.576Z,1168.00
2019-05-02T10:13:56.597Z,1160.00
2019-05-02T10:14:56.567Z,1148.00
2019-05-02T10:15:56.555Z,1152.00
2019-05-02T10:16:57.650Z,1216.00
2019-05-02T10:18:07.801Z,1336.00
2019-05-02T10:19:00.229Z,1516.00
2019-05-02T10:19:57.272Z,1588.00
2019-05-02T10:20:59.297Z,1396.00
2019-05-02T10:21:56.528Z,1048.00
2019-05-02T10:22:56.472Z,1160.00
2019-05-02T10:23:59.564Z,1288.00
2019-05-02T10:24:56.452Z,1292.00
2019-05-02T10:25:56.436Z,1300.00
2019-05-02T10:27:55.420Z,1384.00
2019-05-02T10:28:56.424Z,1456.00
2019-05-02T10:29:57.249Z,1448.00
2019-05-02T10:30:56.881Z,1384.00
2019-05-02T10:31:56.369Z,1480.00
2019-05-02T10:32:57.347Z,1480.00
2019-05-02T10:33:56.376Z,1448.00
2019-05-02T10:34:56.934Z,1336.00
2019-05-02T10:35:59.290Z,1428.00
2019-05-02T10:36:58.881Z,1484.00
2019-05-02T10:37:56.310Z,1520.00
2019-05-02T10:38:59.170Z,1520.00
2019-05-02T10:39:56.284Z,1460.00
2019-05-02T10:41:57.542Z,1456.00
2019-05-02T10:42:56.253Z,1464.00
2019-05-02T10:43:59.347Z,1508.00
2019-05-02T10:44:56.241Z,1440.00
2019-05-02T10:45:56.622Z,1380.00
2019-05-02T10:46:56.204Z,1364.00
2019-05-02T10:47:56.791Z,1400.00
2019-05-02T10:48:56.199Z,1452.00
2019-05-02T10:49:56.195Z,1500.00
2019-05-02T10:50:56.162Z,1620.00
2019-05-02T10:51:56.155Z,1800.00
2019-05-02T10:52:56.145Z,1984.00
2019-05-02T10:53:56.741Z,1776.00
2019-05-02T10:54:56.159Z,1556.00
2019-05-02T10:55:56.119Z,1224.00
2019-05-02T10:56:56.097Z,1236.00
2019-05-02T10:57:56.094Z,1476.00
2019-05-02T10:58:56.078Z,1516.00
2019-05-02T10:59:56.327Z,1532.00
2019-05-02T11:00:56.052Z,1532.00
2019-05-02T11:01:56.049Z,1548.00
2019-05-02T11:02:56.087Z,1580.00
2019-05-02T11:03:56.035Z,1600.00
2019-05-02T11:04:58.783Z,1624.00
2019-05-02T11:06:56.692Z,1660.00
2019-05-02T11:07:56.856Z,1616.00
2019-05-02T11:08:55.994Z,1652.00
2019-05-02T11:09:57.399Z,1656.00
2019-05-02T11:10:55.953Z,1648.00
2019-05-02T11:11:55.941Z,1648.00
2019-05-02T11:12:56.786Z,1668.00
2019-05-02T11:14:01.038Z,1752.00
2019-05-02T11:14:55.927Z,1792.00
2019-05-02T11:15:55.903Z,1892.00
2019-05-02T11:16:56.898Z,1972.00
2019-05-02T11:17:55.880Z,2124.00
2019-05-02T11:18:55.862Z,2324.00
2019-05-02T11:19:55.888Z,2208.00
2019-05-02T11:20:59.139Z,1892.00
2019-05-02T11:21:59.012Z,1664.00
2019-05-02T11:22:55.828Z,1992.00
2019-05-02T11:23:55.954Z,2040.00
2019-05-02T11:24:55.795Z,2156.00
2019-05-02T11:25:55.813Z,2196.00
2019-05-02T11:26:55.776Z,2188.00
2019-05-02T11:27:57.324Z,2316.00
2019-05-02T11:28:55.765Z,2376.00
2019-05-02T11:29:58.277Z,2184.00
2019-05-02T11:30:57.039Z,1848.00
2019-05-02T11:31:55.718Z,1900.00
2019-05-02T11:32:55.712Z,2448.00
2019-05-02T11:33:55.707Z,2400.00
2019-05-02T11:34:55.697Z,2380.00
2019-05-02T11:35:55.694Z,2656.00
2019-05-02T11:36:55.681Z,2872.00
2019-05-02T11:37:55.658Z,2220.00
2019-05-02T11:39:03.303Z,2044.00
2019-05-02T11:40:00.075Z,2384.00
2019-05-02T11:40:55.641Z,2188.00
2019-05-02T11:42:57.191Z,2344.00
2019-05-02T11:43:55.897Z,2352.00
2019-05-02T11:44:55.587Z,2296.00
2019-05-02T11:46:05.530Z,2328.00
2019-05-02T11:46:58.280Z,2356.00
2019-05-02T11:48:01.690Z,544.00
2019-05-02T11:48:58.551Z,560.00
2019-05-02T11:49:56.049Z,584.00
2019-05-02T11:50:58.065Z,596.00
2019-05-02T11:51:57.219Z,616.00
2019-05-02T11:52:55.494Z,632.00
2019-05-02T11:53:59.245Z,648.00
2019-05-02T11:54:55.472Z,620.00
2019-05-02T11:55:58.442Z,640.00
2019-05-02T11:56:55.478Z,640.00
2019-05-02T11:57:55.435Z,596.00
2019-05-02T11:58:56.279Z,552.00
2019-05-02T11:59:59.404Z,264.00
2019-05-02T12:00:56.322Z,276.00
2019-05-02T12:01:59.742Z,420.00
2019-05-02T12:02:58.171Z,352.00
2019-05-02T12:03:55.380Z,384.00
2019-05-02T12:04:55.657Z,388.00
2019-05-02T12:05:55.392Z,380.00
2019-05-02T12:07:00.931Z,488.00
2019-05-02T12:07:55.334Z,396.00
2019-05-02T12:08:55.323Z,436.00
2019-05-02T12:09:57.014Z,596.00
2019-05-02T12:10:55.304Z,588.00
2019-05-02T12:11:56.732Z,648.00
2019-05-02T12:12:55.277Z,396.00
2019-05-02T12:13:57.093Z,376.00
2019-05-02T12:14:55.265Z,528.00
2019-05-02T12:15:55.323Z,608.00
2019-05-02T12:16:55.324Z,352.00
2019-05-02T12:19:54.225Z,440.00
2019-05-02T12:20:55.212Z,440.00
2019-05-02T12:21:55.211Z,420.00
2019-05-02T12:22:55.175Z,460.00
2019-05-02T12:23:55.162Z,408.00
2019-05-02T12:24:55.796Z,420.00
2019-05-02T12:25:55.141Z,424.00
2019-05-02T12:26:55.165Z,564.00
2019-05-02T12:27:55.121Z,772.00
2019-05-02T12:28:55.109Z,700.00
2019-05-02T12:29:57.991Z,356.00
2019-05-02T12:30:55.093Z,376.00
2019-05-02T12:31:56.516Z,452.00
2019-05-02T12:32:55.148Z,512.00
2019-05-02T12:33:55.063Z,436.00
2019-05-02T12:34:55.775Z,376.00
2019-05-02T12:35:55.782Z,388.00
2019-05-02T12:36:55.019Z,460.00
2019-05-02T12:37:55.346Z,764.00
2019-05-02T12:38:56.271Z,428.00
2019-05-02T12:39:54.990Z,472.00
2019-05-02T12:40:57.832Z,868.00
2019-05-02T12:41:55.430Z,788.00
2019-05-02T12:42:55.000Z,856.00
2019-05-02T12:43:54.935Z,908.00
2019-05-02T12:44:57.775Z,876.00
2019-05-02T12:45:54.977Z,836.00
2019-05-02T12:46:54.907Z,700.00
2019-05-02T12:47:57.770Z,224.00
2019-05-02T12:48:54.889Z,220.00
2019-05-02T12:49:54.884Z,212.00
2019-05-02T12:50:54.865Z,216.00
2019-05-02T12:51:54.889Z,216.00
2019-05-02T12:52:55.761Z,244.00
2019-05-02T12:53:54.852Z,284.00
2019-05-02T12:54:54.828Z,340.00
2019-05-02T12:55:54.814Z,404.00